メインページ
METAR-TAF:

METAR-TAF

空港 :

ハノイ, ベトナム

ノイバイ国際空港

緯度: 21-01N, 経度: 105-48E, 海抜: 6m

現時点の気象観測

当レポートは44分前の14:00(UTC)に作成
南/南東の風 8kt、東/南東からの間で変化する
気温 31°C
湿度 75%
気圧 1004 hPa
視程10km以上
高度3000ftの雲はほとんどない

METAR: VVNB 271400Z 15008KT 120V180 9999 FEW030 31/26 Q1004 NOSIG

時間: 21:44 (14:44 UTC)

予報

当レポートは3時間44分前の11:00(UTC)に作成
予報は27日の 12時(UTC)から 28日の 12時(UTC)まで有効
東/南東の風 5kt
視程10km以上
1,500メートル以下は雲なし、積乱雲なし
27日の 18時(UTC)から 27日の 20時(UTC)まで徐々に
視程: 3500m
28日の 00時(UTC)から 28日の 01時(UTC)まで徐々に
視程: 6000m

TAF: VVNB 271100Z 2712/2812 12005KT CAVOK BECMG 2718/2720 3500 BR BECMG 2800/2801 6000 NSW

4,000以上の空港の気象観測と天気予報(METAR報とTAF報)

利用可能な観測所は地図上に黄色い丸と赤い丸で示す。

丸の上にカーソルを重ねると観測所名を参照できる。

次にクリックすると気象観測と天気予報を参照できる。

マップの切り替え:黒色「×」印の緑ボタンをクリックして拡大、「-」印の緑ボタンをクリックして縮小、緑色の三角印をクリックして隣りの地図に切り替え


METAR-TAF: